sensor_id;sensor_type;location;lat;lon;timestamp;pressure;altitude;pressure_sealevel;temperature;humidity
71770;BME280;59605;52.122;5.420;2022-08-03T00:00:21;101625.28;;;23.24;61.71
71770;BME280;59605;52.122;5.420;2022-08-03T00:02:49;101621.00;;;23.23;61.62
71770;BME280;59605;52.122;5.420;2022-08-03T00:05:16;101626.25;;;23.23;61.82
71770;BME280;59605;52.122;5.420;2022-08-03T00:07:42;101621.09;;;23.22;61.81
71770;BME280;59605;52.122;5.420;2022-08-03T00:10:09;101617.53;;;23.23;61.99
71770;BME280;59605;52.122;5.420;2022-08-03T00:12:37;101625.41;;;23.23;61.78
71770;BME280;59605;52.122;5.420;2022-08-03T00:15:04;101621.97;;;23.22;61.74
71770;BME280;59605;52.122;5.420;2022-08-03T00:17:40;101621.00;;;23.23;61.76
71770;BME280;59605;52.122;5.420;2022-08-03T00:20:21;101623.72;;;23.22;61.86
71770;BME280;59605;52.122;5.420;2022-08-03T00:22:49;101619.34;;;23.22;61.95
71770;BME280;59605;52.122;5.420;2022-08-03T00:25:16;101625.41;;;23.23;61.89
71770;BME280;59605;52.122;5.420;2022-08-03T00:27:43;101617.66;;;23.21;62.04
71770;BME280;59605;52.122;5.420;2022-08-03T00:30:10;101618.47;;;23.22;61.74
71770;BME280;59605;52.122;5.420;2022-08-03T00:32:36;101619.47;;;23.21;62.11
71770;BME280;59605;52.122;5.420;2022-08-03T00:35:09;101613.34;;;23.20;61.76
71770;BME280;59605;52.122;5.420;2022-08-03T00:37:57;101615.97;;;23.20;61.90
71770;BME280;59605;52.122;5.420;2022-08-03T00:40:23;101615.16;;;23.20;62.00
71770;BME280;59605;52.122;5.420;2022-08-03T00:42:52;101621.22;;;23.20;61.94
71770;BME280;59605;52.122;5.420;2022-08-03T00:45:21;101623.03;;;23.20;62.02
71770;BME280;59605;52.122;5.420;2022-08-03T00:47:48;101612.66;;;23.18;61.86
71770;BME280;59605;52.122;5.420;2022-08-03T00:50:15;101616.97;;;23.19;61.86
71770;BME280;59605;52.122;5.420;2022-08-03T00:52:41;101609.09;;;23.19;62.25
71770;BME280;59605;52.122;5.420;2022-08-03T00:55:09;101611.72;;;23.19;62.00
71770;BME280;59605;52.122;5.420;2022-08-03T00:57:36;101610.03;;;23.18;62.21
71770;BME280;59605;52.122;5.420;2022-08-03T01:00:05;101602.16;;;23.18;62.30
71770;BME280;59605;52.122;5.420;2022-08-03T01:02:32;101601.34;;;23.17;62.08
71770;BME280;59605;52.122;5.420;2022-08-03T01:04:59;101602.16;;;23.18;62.20
71770;BME280;59605;52.122;5.420;2022-08-03T01:07:36;101605.75;;;23.17;61.66
71770;BME280;59605;52.122;5.420;2022-08-03T01:10:16;101603.13;;;23.17;62.13
71770;BME280;59605;52.122;5.420;2022-08-03T01:12:55;101601.34;;;23.17;61.77
71770;BME280;59605;52.122;5.420;2022-08-03T01:18:13;101601.34;;;23.17;62.18
71770;BME280;59605;52.122;5.420;2022-08-03T01:20:44;101603.97;;;23.17;62.14
71770;BME280;59605;52.122;5.420;2022-08-03T01:24:04;101608.34;;;23.17;61.92
71770;BME280;59605;52.122;5.420;2022-08-03T01:32:01;101598.84;;;23.16;61.84
71770;BME280;59605;52.122;5.420;2022-08-03T01:35:01;101596.22;;;23.16;62.07
71770;BME280;59605;52.122;5.420;2022-08-03T01:37:40;101596.22;;;23.16;62.17
71770;BME280;59605;52.122;5.420;2022-08-03T01:40:08;101595.38;;;23.15;62.20
71770;BME280;59605;52.122;5.420;2022-08-03T01:42:39;101604.09;;;23.16;61.95
71770;BME280;59605;52.122;5.420;2022-08-03T01:45:08;101590.25;;;23.14;61.97
71770;BME280;59605;52.122;5.420;2022-08-03T01:47:37;101592.75;;;23.15;61.74
71770;BME280;59605;52.122;5.420;2022-08-03T01:50:06;101591.94;;;23.15;62.05
71770;BME280;59605;52.122;5.420;2022-08-03T01:52:37;101585.00;;;23.14;62.13
71770;BME280;59605;52.122;5.420;2022-08-03T01:55:05;101585.84;;;23.14;62.07
71770;BME280;59605;52.122;5.420;2022-08-03T01:57:32;101581.56;;;23.13;62.01
71770;BME280;59605;52.122;5.420;2022-08-03T02:00:20;101583.31;;;23.13;61.88
71770;BME280;59605;52.122;5.420;2022-08-03T02:02:48;101582.38;;;23.14;62.10
71770;BME280;59605;52.122;5.420;2022-08-03T02:05:17;101580.69;;;23.13;62.18
71770;BME280;59605;52.122;5.420;2022-08-03T02:07:45;101583.31;;;23.13;62.13
71770;BME280;59605;52.122;5.420;2022-08-03T02:10:14;101593.81;;;23.13;61.99
71770;BME280;59605;52.122;5.420;2022-08-03T02:13:00;101588.56;;;23.13;61.88
71770;BME280;59605;52.122;5.420;2022-08-03T02:15:28;101589.44;;;23.13;62.18
71770;BME280;59605;52.122;5.420;2022-08-03T02:17:56;101583.31;;;23.13;62.01
71770;BME280;59605;52.122;5.420;2022-08-03T02:20:26;101579.88;;;23.12;61.92
71770;BME280;59605;52.122;5.420;2022-08-03T02:22:58;101586.94;;;23.12;61.72
71770;BME280;59605;52.122;5.420;2022-08-03T02:25:24;101593.00;;;23.12;61.71
71770;BME280;59605;52.122;5.420;2022-08-03T02:27:55;101589.53;;;23.12;61.99
71770;BME280;59605;52.122;5.420;2022-08-03T02:30:29;101580.00;;;23.11;62.05
71770;BME280;59605;52.122;5.420;2022-08-03T02:32:57;101584.31;;;23.12;62.00
71770;BME280;59605;52.122;5.420;2022-08-03T02:35:25;101579.06;;;23.12;61.93
71770;BME280;59605;52.122;5.420;2022-08-03T02:38:02;101571.19;;;23.12;61.80
71770;BME280;59605;52.122;5.420;2022-08-03T02:40:30;101576.44;;;23.12;61.96
71770;BME280;59605;52.122;5.420;2022-08-03T02:43:05;101568.69;;;23.10;61.87
71770;BME280;59605;52.122;5.420;2022-08-03T02:45:35;101568.56;;;23.12;61.93
71770;BME280;59605;52.122;5.420;2022-08-03T02:48:15;101559.13;;;23.09;61.69
71770;BME280;59605;52.122;5.420;2022-08-03T02:50:43;101560.81;;;23.10;61.90
71770;BME280;59605;52.122;5.420;2022-08-03T02:53:11;101555.59;;;23.10;61.77
71770;BME280;59605;52.122;5.420;2022-08-03T02:55:38;101559.03;;;23.11;62.18
71770;BME280;59605;52.122;5.420;2022-08-03T02:58:12;101551.25;;;23.09;61.77
71770;BME280;59605;52.122;5.420;2022-08-03T03:00:39;101551.25;;;23.09;61.74
71770;BME280;59605;52.122;5.420;2022-08-03T03:03:08;101553.06;;;23.09;61.85
71770;BME280;59605;52.122;5.420;2022-08-03T03:05:37;101549.56;;;23.08;61.78
71770;BME280;59605;52.122;5.420;2022-08-03T03:08:24;101563.53;;;23.09;61.97
71770;BME280;59605;52.122;5.420;2022-08-03T03:10:58;101560.91;;;23.09;62.09
71770;BME280;59605;52.122;5.420;2022-08-03T03:13:27;101557.31;;;23.10;61.69
71770;BME280;59605;52.122;5.420;2022-08-03T03:15:56;101554.81;;;23.08;62.12
71770;BME280;59605;52.122;5.420;2022-08-03T03:18:27;101553.06;;;23.09;61.96
71770;BME280;59605;52.122;5.420;2022-08-03T03:20:54;101558.28;;;23.09;62.12
71770;BME280;59605;52.122;5.420;2022-08-03T03:23:22;101558.41;;;23.07;61.76
71770;BME280;59605;52.122;5.420;2022-08-03T03:25:50;101553.16;;;23.07;61.54
71770;BME280;59605;52.122;5.420;2022-08-03T03:28:17;101551.38;;;23.08;61.90
71770;BME280;59605;52.122;5.420;2022-08-03T03:30:44;101551.50;;;23.06;61.60
71770;BME280;59605;52.122;5.420;2022-08-03T03:33:18;101547.94;;;23.07;61.71
71770;BME280;59605;52.122;5.420;2022-08-03T03:35:45;101551.50;;;23.06;61.98
71770;BME280;59605;52.122;5.420;2022-08-03T03:38:12;101549.69;;;23.07;61.88
71770;BME280;59605;52.122;5.420;2022-08-03T03:40:38;101552.31;;;23.07;61.85
71770;BME280;59605;52.122;5.420;2022-08-03T03:43:10;101552.31;;;23.07;61.90
71770;BME280;59605;52.122;5.420;2022-08-03T03:45:39;101551.50;;;23.06;61.83
71770;BME280;59605;52.122;5.420;2022-08-03T03:48:06;101555.06;;;23.05;61.95
71770;BME280;59605;52.122;5.420;2022-08-03T03:50:34;101556.75;;;23.06;61.72
71770;BME280;59605;52.122;5.420;2022-08-03T03:53:02;101550.66;;;23.06;62.32
71770;BME280;59605;52.122;5.420;2022-08-03T03:55:29;101554.38;;;23.03;62.45
71770;BME280;59605;52.122;5.420;2022-08-03T03:57:56;101560.66;;;23.00;62.47
71770;BME280;59605;52.122;5.420;2022-08-03T04:00:22;101559.13;;;22.98;62.70
71770;BME280;59605;52.122;5.420;2022-08-03T04:02:49;101555.78;;;22.96;62.45
71770;BME280;59605;52.122;5.420;2022-08-03T04:05:15;101554.25;;;22.93;62.76
71770;BME280;59605;52.122;5.420;2022-08-03T04:08:06;101552.69;;;22.91;62.41
71770;BME280;59605;52.122;5.420;2022-08-03T04:11:16;101551.03;;;22.90;62.59
71770;BME280;59605;52.122;5.420;2022-08-03T04:14:37;101553.78;;;22.88;62.80
71770;BME280;59605;52.122;5.420;2022-08-03T04:16:48;101552.22;;;22.86;62.42
71770;BME280;59605;52.122;5.420;2022-08-03T04:19:39;101552.34;;;22.84;62.84
71770;BME280;59605;52.122;5.420;2022-08-03T04:22:13;101552.47;;;22.82;62.96
71770;BME280;59605;52.122;5.420;2022-08-03T04:24:49;101557.72;;;22.82;62.66
71770;BME280;59605;52.122;5.420;2022-08-03T04:27:20;101563.06;;;22.81;62.75
71770;BME280;59605;52.122;5.420;2022-08-03T04:29:48;101554.47;;;22.79;63.08
71770;BME280;59605;52.122;5.420;2022-08-03T04:32:17;101558.78;;;22.80;62.80
71770;BME280;59605;52.122;5.420;2022-08-03T04:34:46;101555.53;;;22.76;63.07
71770;BME280;59605;52.122;5.420;2022-08-03T04:37:37;101561.38;;;22.69;62.84
71770;BME280;59605;52.122;5.420;2022-08-03T04:40:15;101558.50;;;22.60;63.50
71770;BME280;59605;52.122;5.420;2022-08-03T04:42:48;101563.28;;;22.55;63.50
71770;BME280;59605;52.122;5.420;2022-08-03T04:45:16;101558.50;;;22.49;63.64
71770;BME280;59605;52.122;5.420;2022-08-03T04:47:44;101566.59;;;22.46;63.63
71770;BME280;59605;52.122;5.420;2022-08-03T04:50:11;101572.56;;;22.48;64.03
71770;BME280;59605;52.122;5.420;2022-08-03T04:52:43;101567.31;;;22.48;63.82
71770;BME280;59605;52.122;5.420;2022-08-03T04:55:10;101573.50;;;22.47;64.25
71770;BME280;59605;52.122;5.420;2022-08-03T04:57:36;101576.34;;;22.44;64.00
71770;BME280;59605;52.122;5.420;2022-08-03T05:00:04;101573.13;;;22.40;64.30
71770;BME280;59605;52.122;5.420;2022-08-03T05:02:31;101579.56;;;22.36;64.35
71770;BME280;59605;52.122;5.420;2022-08-03T05:04:57;101575.38;;;22.34;64.43
71770;BME280;59605;52.122;5.420;2022-08-03T05:07:24;101585.13;;;22.31;64.72
71770;BME280;59605;52.122;5.420;2022-08-03T05:09:51;101579.88;;;22.31;64.69
71770;BME280;59605;52.122;5.420;2022-08-03T05:12:28;101589.63;;;22.29;64.92
71770;BME280;59605;52.122;5.420;2022-08-03T05:14:58;101583.66;;;22.27;65.08
71770;BME280;59605;52.122;5.420;2022-08-03T05:17:25;101590.81;;;22.25;64.84
71770;BME280;59605;52.122;5.420;2022-08-03T05:19:52;101591.75;;;22.24;64.80
71770;BME280;59605;52.122;5.420;2022-08-03T05:22:19;101593.53;;;22.24;64.89
71770;BME280;59605;52.122;5.420;2022-08-03T05:24:46;101594.50;;;22.23;65.08
71770;BME280;59605;52.122;5.420;2022-08-03T05:27:12;101593.63;;;22.22;65.33
71770;BME280;59605;52.122;5.420;2022-08-03T05:29:49;101589.72;;;22.28;65.02
71770;BME280;59605;52.122;5.420;2022-08-03T05:32:16;101585.84;;;22.34;65.08
71770;BME280;59605;52.122;5.420;2022-08-03T05:34:43;101596.72;;;22.40;64.56
71770;BME280;59605;52.122;5.420;2022-08-03T05:37:10;101598.03;;;22.46;64.37
71770;BME280;59605;52.122;5.420;2022-08-03T05:39:36;101603.41;;;22.44;65.23
71770;BME280;59605;52.122;5.420;2022-08-03T05:42:03;101604.69;;;22.39;65.73
71770;BME280;59605;52.122;5.420;2022-08-03T05:44:29;101600.81;;;22.31;66.07
71770;BME280;59605;52.122;5.420;2022-08-03T05:46:57;101600.22;;;22.28;66.16
71770;BME280;59605;52.122;5.420;2022-08-03T05:49:23;101606.53;;;22.25;66.52
71770;BME280;59605;52.122;5.420;2022-08-03T05:51:50;101603.16;;;22.23;66.84
71770;BME280;59605;52.122;5.420;2022-08-03T05:54:36;101594.97;;;22.28;66.89
71770;BME280;59605;52.122;5.420;2022-08-03T05:57:22;101603.06;;;22.25;66.81
71770;BME280;59605;52.122;5.420;2022-08-03T05:59:48;101592.59;;;22.25;66.94
71770;BME280;59605;52.122;5.420;2022-08-03T06:02:22;101601.38;;;22.24;66.91
71770;BME280;59605;52.122;5.420;2022-08-03T06:04:49;101603.16;;;22.23;66.90
71770;BME280;59605;52.122;5.420;2022-08-03T06:07:15;101593.63;;;22.22;67.03
71770;BME280;59605;52.122;5.420;2022-08-03T06:09:42;101597.00;;;22.24;66.93
71770;BME280;59605;52.122;5.420;2022-08-03T06:12:28;101599.50;;;22.26;67.07
71770;BME280;59605;52.122;5.420;2022-08-03T06:14:55;101601.19;;;22.27;67.20
71770;BME280;59605;52.122;5.420;2022-08-03T06:17:21;101592.13;;;22.31;67.55
71770;BME280;59605;52.122;5.420;2022-08-03T06:19:51;101589.22;;;22.36;67.17
71770;BME280;59605;52.122;5.420;2022-08-03T06:22:19;101599.56;;;22.37;66.77
71770;BME280;59605;52.122;5.420;2022-08-03T06:24:46;101599.69;;;22.36;67.29
71770;BME280;59605;52.122;5.420;2022-08-03T06:27:19;101605.88;;;22.35;67.39
71770;BME280;59605;52.122;5.420;2022-08-03T06:30:02;101600.75;;;22.33;67.24
71770;BME280;59605;52.122;5.420;2022-08-03T06:32:29;101600.75;;;22.33;66.93
71770;BME280;59605;52.122;5.420;2022-08-03T06:34:55;101603.38;;;22.33;66.81
71770;BME280;59605;52.122;5.420;2022-08-03T06:37:21;101597.28;;;22.33;67.10
71770;BME280;59605;52.122;5.420;2022-08-03T06:39:49;101605.97;;;22.33;66.99
71770;BME280;59605;52.122;5.420;2022-08-03T06:42:16;101604.19;;;22.34;67.10
71770;BME280;59605;52.122;5.420;2022-08-03T06:44:42;101596.31;;;22.34;67.26
71770;BME280;59605;52.122;5.420;2022-08-03T06:47:09;101601.56;;;22.34;67.19
71770;BME280;59605;52.122;5.420;2022-08-03T06:49:35;101599.69;;;22.36;67.11
71770;BME280;59605;52.122;5.420;2022-08-03T06:52:03;101601.97;;;22.40;67.08
71770;BME280;59605;52.122;5.420;2022-08-03T06:54:32;101594.56;;;22.45;66.62
71770;BME280;59605;52.122;5.420;2022-08-03T06:56:59;101596.00;;;22.49;66.43
71770;BME280;59605;52.122;5.420;2022-08-03T06:59:25;101600.19;;;22.52;66.39
71770;BME280;59605;52.122;5.420;2022-08-03T07:02:11;101596.41;;;22.56;66.48
71770;BME280;59605;52.122;5.420;2022-08-03T07:04:44;101609.25;;;22.59;66.28
71770;BME280;59605;52.122;5.420;2022-08-03T07:07:11;101607.47;;;22.60;65.81
71770;BME280;59605;52.122;5.420;2022-08-03T07:09:37;101615.22;;;22.61;65.92
71770;BME280;59605;52.122;5.420;2022-08-03T07:12:06;101614.25;;;22.62;65.72
71770;BME280;59605;52.122;5.420;2022-08-03T07:14:33;101618.56;;;22.63;65.86
71770;BME280;59605;52.122;5.420;2022-08-03T07:17:00;101622.00;;;22.64;65.41
71770;BME280;59605;52.122;5.420;2022-08-03T07:19:29;101616.66;;;22.65;65.50
71770;BME280;59605;52.122;5.420;2022-08-03T07:21:56;101615.81;;;22.65;65.61
71770;BME280;59605;52.122;5.420;2022-08-03T07:24:27;101620.09;;;22.66;65.57
71770;BME280;59605;52.122;5.420;2022-08-03T07:26:54;101627.00;;;22.67;65.35
71770;BME280;59605;52.122;5.420;2022-08-03T07:29:20;101625.22;;;22.67;65.89
71770;BME280;59605;52.122;5.420;2022-08-03T07:31:47;101628.56;;;22.70;65.34
71770;BME280;59605;52.122;5.420;2022-08-03T07:34:13;101635.38;;;22.72;65.48
71770;BME280;59605;52.122;5.420;2022-08-03T07:36:39;101636.19;;;22.73;65.42
71770;BME280;59605;52.122;5.420;2022-08-03T07:39:06;101638.81;;;22.73;65.31
71770;BME280;59605;52.122;5.420;2022-08-03T07:41:43;101637.88;;;22.74;65.25
71770;BME280;59605;52.122;5.420;2022-08-03T07:44:10;101631.66;;;22.75;65.48
71770;BME280;59605;52.122;5.420;2022-08-03T07:46:36;101639.53;;;22.75;65.24
71770;BME280;59605;52.122;5.420;2022-08-03T07:49:03;101636.91;;;22.75;65.34
71770;BME280;59605;52.122;5.420;2022-08-03T07:51:30;101630.72;;;22.76;65.38
71770;BME280;59605;52.122;5.420;2022-08-03T07:53:56;101637.75;;;22.75;65.17
71770;BME280;59605;52.122;5.420;2022-08-03T07:56:23;101628.09;;;22.76;65.20
71770;BME280;59605;52.122;5.420;2022-08-03T07:58:53;101630.72;;;22.76;65.04
71770;BME280;59605;52.122;5.420;2022-08-03T08:01:20;101634.03;;;22.78;65.20
71770;BME280;59605;52.122;5.420;2022-08-03T08:03:48;101626.19;;;22.78;64.99
71770;BME280;59605;52.122;5.420;2022-08-03T08:06:19;101626.19;;;22.78;65.22
71770;BME280;59605;52.122;5.420;2022-08-03T08:08:46;101625.34;;;22.77;65.00
71770;BME280;59605;52.122;5.420;2022-08-03T08:11:12;101627.03;;;22.78;65.29
71770;BME280;59605;52.122;5.420;2022-08-03T08:13:39;101620.13;;;22.77;65.12
71770;BME280;59605;52.122;5.420;2022-08-03T08:16:05;101621.78;;;22.78;64.73
71770;BME280;59605;52.122;5.420;2022-08-03T08:18:32;101630.47;;;22.79;65.20
71770;BME280;59605;52.122;5.420;2022-08-03T08:20:59;101623.47;;;22.79;64.83
71770;BME280;59605;52.122;5.420;2022-08-03T08:23:26;101624.28;;;22.80;64.94
71770;BME280;59605;52.122;5.420;2022-08-03T08:26:08;101630.34;;;22.80;65.19
71770;BME280;59605;52.122;5.420;2022-08-03T08:28:34;101629.53;;;22.80;64.76
71770;BME280;59605;52.122;5.420;2022-08-03T08:31:01;101626.78;;;22.81;64.86
71770;BME280;59605;52.122;5.420;2022-08-03T08:33:28;101632.88;;;22.82;64.70
71770;BME280;59605;52.122;5.420;2022-08-03T08:36:14;101620.72;;;22.81;65.00
71770;BME280;59605;52.122;5.420;2022-08-03T08:38:41;101633.72;;;22.82;65.02
71770;BME280;59605;52.122;5.420;2022-08-03T08:41:11;101636.22;;;22.84;64.99
71770;BME280;59605;52.122;5.420;2022-08-03T08:43:38;101640.50;;;22.85;64.79
71770;BME280;59605;52.122;5.420;2022-08-03T08:46:06;101637.88;;;22.85;64.80
71770;BME280;59605;52.122;5.420;2022-08-03T08:48:39;101637.03;;;22.84;64.76
71770;BME280;59605;52.122;5.420;2022-08-03T08:51:08;101636.09;;;22.86;65.03
71770;BME280;59605;52.122;5.420;2022-08-03T08:53:40;101641.22;;;22.87;65.17
71770;BME280;59605;52.122;5.420;2022-08-03T08:56:07;101638.47;;;22.89;65.10
71770;BME280;59605;52.122;5.420;2022-08-03T08:58:46;101642.03;;;22.88;64.94
71770;BME280;59605;52.122;5.420;2022-08-03T09:01:17;101646.22;;;22.90;64.88
71770;BME280;59605;52.122;5.420;2022-08-03T09:03:45;101634.91;;;22.90;65.04
71770;BME280;59605;52.122;5.420;2022-08-03T09:06:12;101636.69;;;22.89;64.84
71770;BME280;59605;52.122;5.420;2022-08-03T09:08:38;101633.25;;;22.89;65.29
71770;BME280;59605;52.122;5.420;2022-08-03T09:11:05;101637.53;;;22.90;65.16
71770;BME280;59605;52.122;5.420;2022-08-03T09:13:33;101639.31;;;22.89;65.11
71770;BME280;59605;52.122;5.420;2022-08-03T09:16:26;101634.91;;;22.90;64.75
71770;BME280;59605;52.122;5.420;2022-08-03T09:18:53;101640.03;;;22.91;65.04
71770;BME280;59605;52.122;5.420;2022-08-03T09:21:26;101636.56;;;22.91;64.99
71770;BME280;59605;52.122;5.420;2022-08-03T09:24:00;101639.19;;;22.91;64.81
71770;BME280;59605;52.122;5.420;2022-08-03T09:26:33;101632.88;;;22.93;64.86
71770;BME280;59605;52.122;5.420;2022-08-03T09:29:10;101638.94;;;22.94;64.97
71770;BME280;59605;52.122;5.420;2022-08-03T09:31:42;101636.22;;;22.95;65.11
71770;BME280;59605;52.122;5.420;2022-08-03T09:34:13;101639.69;;;22.96;65.40
71770;BME280;59605;52.122;5.420;2022-08-03T09:36:44;101630.03;;;22.96;64.90
71770;BME280;59605;52.122;5.420;2022-08-03T09:39:12;101637.06;;;22.96;64.92
71770;BME280;59605;52.122;5.420;2022-08-03T09:41:42;101632.75;;;22.95;65.02
71770;BME280;59605;52.122;5.420;2022-08-03T09:44:09;101641.44;;;22.95;65.21
71770;BME280;59605;52.122;5.420;2022-08-03T09:46:53;101641.44;;;22.95;65.20
71770;BME280;59605;52.122;5.420;2022-08-03T09:49:20;101637.19;;;22.94;65.14
71770;BME280;59605;52.122;5.420;2022-08-03T09:51:47;101634.56;;;22.94;65.23
71770;BME280;59605;52.122;5.420;2022-08-03T09:54:33;101637.06;;;22.96;65.29
71770;BME280;59605;52.122;5.420;2022-08-03T09:57:01;101641.44;;;22.95;65.28
71770;BME280;59605;52.122;5.420;2022-08-03T09:59:29;101630.75;;;22.98;65.45
71770;BME280;59605;52.122;5.420;2022-08-03T10:01:57;101633.38;;;22.98;65.27
71770;BME280;59605;52.122;5.420;2022-08-03T10:04:24;101637.66;;;22.99;65.17
71770;BME280;59605;52.122;5.420;2022-08-03T10:07:08;101637.53;;;23.01;65.06
71770;BME280;59605;52.122;5.420;2022-08-03T10:09:36;101642.66;;;23.02;65.41
71770;BME280;59605;52.122;5.420;2022-08-03T10:12:12;101641.00;;;23.01;65.53
71770;BME280;59605;52.122;5.420;2022-08-03T10:14:40;101635.75;;;23.01;65.19
71770;BME280;59605;52.122;5.420;2022-08-03T10:17:08;101633.97;;;23.02;65.39
71770;BME280;59605;52.122;5.420;2022-08-03T10:19:34;101640.03;;;23.02;65.21
71770;BME280;59605;52.122;5.420;2022-08-03T10:22:05;101641.81;;;23.02;65.68
71770;BME280;59605;52.122;5.420;2022-08-03T10:24:34;101639.09;;;23.04;65.52
71770;BME280;59605;52.122;5.420;2022-08-03T10:27:05;101633.13;;;23.01;65.47
71770;BME280;59605;52.122;5.420;2022-08-03T10:29:42;101633.03;;;23.03;65.58
71770;BME280;59605;52.122;5.420;2022-08-03T10:32:37;101639.09;;;23.04;65.39
71770;BME280;59605;52.122;5.420;2022-08-03T10:35:16;101641.47;;;23.07;65.30
71770;BME280;59605;52.122;5.420;2022-08-03T10:38:28;101641.47;;;23.07;65.32
71770;BME280;59605;52.122;5.420;2022-08-03T10:40:53;101631.94;;;23.06;65.29
71770;BME280;59605;52.122;5.420;2022-08-03T10:43:32;101631.94;;;23.06;65.47
71770;BME280;59605;52.122;5.420;2022-08-03T10:46:03;101630.84;;;23.08;65.46
71770;BME280;59605;52.122;5.420;2022-08-03T10:48:32;101634.44;;;23.07;65.35
71770;BME280;59605;52.122;5.420;2022-08-03T10:51:00;101627.41;;;23.08;65.28
71770;BME280;59605;52.122;5.420;2022-08-03T10:53:40;101624.78;;;23.08;65.35
71770;BME280;59605;52.122;5.420;2022-08-03T10:56:37;101623.84;;;23.09;65.18
71770;BME280;59605;52.122;5.420;2022-08-03T11:02:12;101616.94;;;23.08;65.64
71770;BME280;59605;52.122;5.420;2022-08-03T11:04:40;101613.47;;;23.07;65.47
71770;BME280;59605;52.122;5.420;2022-08-03T11:09:54;101625.63;;;23.08;65.60
71770;BME280;59605;52.122;5.420;2022-08-03T11:15:05;101608.13;;;23.09;65.27
71770;BME280;59605;52.122;5.420;2022-08-03T11:17:34;101614.19;;;23.09;65.44
71770;BME280;59605;52.122;5.420;2022-08-03T11:20:46;101612.38;;;23.10;65.38
71770;BME280;59605;52.122;5.420;2022-08-03T11:23:14;101610.66;;;23.10;65.34
71770;BME280;59605;52.122;5.420;2022-08-03T11:28:36;101614.91;;;23.11;65.19
71770;BME280;59605;52.122;5.420;2022-08-03T11:34:14;101617.41;;;23.13;65.40
71770;BME280;59605;52.122;5.420;2022-08-03T11:37:19;101617.41;;;23.13;64.91
71770;BME280;59605;52.122;5.420;2022-08-03T11:39:50;101612.16;;;23.13;65.13
71770;BME280;59605;52.122;5.420;2022-08-03T11:44:50;101612.16;;;23.13;64.83
71770;BME280;59605;52.122;5.420;2022-08-03T11:47:19;101613.03;;;23.13;65.16
71770;BME280;59605;52.122;5.420;2022-08-03T11:49:47;101610.41;;;23.13;65.00
71770;BME280;59605;52.122;5.420;2022-08-03T11:52:15;101599.91;;;23.13;64.89
71770;BME280;59605;52.122;5.420;2022-08-03T11:54:43;101599.91;;;23.13;64.88
71770;BME280;59605;52.122;5.420;2022-08-03T11:57:09;101605.16;;;23.13;64.82
71770;BME280;59605;52.122;5.420;2022-08-03T11:59:36;101611.22;;;23.14;64.82
71770;BME280;59605;52.122;5.420;2022-08-03T12:02:09;101611.22;;;23.14;64.88
71770;BME280;59605;52.122;5.420;2022-08-03T12:04:57;101612.06;;;23.14;65.15
71770;BME280;59605;52.122;5.420;2022-08-03T12:07:26;101608.59;;;23.14;64.60
71770;BME280;59605;52.122;5.420;2022-08-03T12:10:13;101612.06;;;23.14;64.76
71770;BME280;59605;52.122;5.420;2022-08-03T12:12:41;101606.84;;;23.14;64.73
71770;BME280;59605;52.122;5.420;2022-08-03T12:15:11;101610.28;;;23.15;64.67
71770;BME280;59605;52.122;5.420;2022-08-03T12:17:39;101610.16;;;23.16;64.76
71770;BME280;59605;52.122;5.420;2022-08-03T12:20:08;101616.22;;;23.17;64.70
71770;BME280;59605;52.122;5.420;2022-08-03T12:22:37;101604.09;;;23.16;64.57
71770;BME280;59605;52.122;5.420;2022-08-03T12:25:05;101602.28;;;23.16;64.40
71770;BME280;59605;52.122;5.420;2022-08-03T12:27:32;101604.78;;;23.18;64.46
71770;BME280;59605;52.122;5.420;2022-08-03T12:30:00;101598.72;;;23.17;64.36
71770;BME280;59605;52.122;5.420;2022-08-03T12:32:27;101602.16;;;23.18;64.51
71770;BME280;59605;52.122;5.420;2022-08-03T12:34:56;101608.22;;;23.18;64.51
71770;BME280;59605;52.122;5.420;2022-08-03T12:37:31;101600.38;;;23.18;64.49
71770;BME280;59605;52.122;5.420;2022-08-03T12:39:59;101604.78;;;23.18;64.40
71770;BME280;59605;52.122;5.420;2022-08-03T12:42:36;101595.13;;;23.18;64.53
71770;BME280;59605;52.122;5.420;2022-08-03T12:45:25;101607.16;;;23.21;64.74
71770;BME280;59605;52.122;5.420;2022-08-03T12:47:58;101600.25;;;23.20;64.68
71770;BME280;59605;52.122;5.420;2022-08-03T12:50:29;101601.94;;;23.21;64.57
71770;BME280;59605;52.122;5.420;2022-08-03T12:52:58;101605.50;;;23.20;64.67
71770;BME280;59605;52.122;5.420;2022-08-03T12:55:25;101606.34;;;23.21;64.91
71770;BME280;59605;52.122;5.420;2022-08-03T12:58:32;101610.75;;;23.20;64.57
71770;BME280;59605;52.122;5.420;2022-08-03T13:01:01;101604.53;;;23.21;64.60
71770;BME280;59605;52.122;5.420;2022-08-03T13:03:40;101603.72;;;23.21;64.58
71770;BME280;59605;52.122;5.420;2022-08-03T13:06:13;101606.22;;;23.22;64.61
71770;BME280;59605;52.122;5.420;2022-08-03T13:08:40;101600.13;;;23.22;64.51
71770;BME280;59605;52.122;5.420;2022-08-03T13:11:22;101596.69;;;23.21;64.52
71770;BME280;59605;52.122;5.420;2022-08-03T13:14:09;101584.28;;;23.23;64.05
71770;BME280;59605;52.122;5.420;2022-08-03T13:16:45;101595.63;;;23.24;64.20
71770;BME280;59605;52.122;5.420;2022-08-03T13:19:11;101601.81;;;23.23;64.22
71770;BME280;59605;52.122;5.420;2022-08-03T13:21:41;101593.09;;;23.22;64.29
71770;BME280;59605;52.122;5.420;2022-08-03T13:24:28;101598.34;;;23.22;64.27
71770;BME280;59605;52.122;5.420;2022-08-03T13:26:55;101607.03;;;23.23;64.05
71770;BME280;59605;52.122;5.420;2022-08-03T13:29:22;101593.94;;;23.23;63.95
71770;BME280;59605;52.122;5.420;2022-08-03T13:31:48;101587.88;;;23.22;64.23
71770;BME280;59605;52.122;5.420;2022-08-03T13:34:16;101600.97;;;23.22;63.94
71770;BME280;59605;52.122;5.420;2022-08-03T13:36:52;101606.22;;;23.22;64.08